Time;durP1;ratioP1;P1;durP2;ratioP2;P2;SDS_P1;SDS_P2;PMS_P1;PMS_P2;Temp;Humidity;BMP_temperature;BMP_pressure;BME280_temperature;BME280_humidity;BME280_pressure;Samples;Min_cycle;Max_cycle;Signal;HPM_P1;HPM_P2
2022/09/17 00:01:40;;;;;;;5.93;5.43;;;9.20;99.90;;;;;;6186883;23;20021;-83
2022/09/17 00:04:10;;;;;;;5.68;4.75;;;9.10;99.90;;;;;;6193259;23;20017;-82
2022/09/17 00:06:37;;;;;;;6.53;4.43;;;9.10;99.90;;;;;;6168435;23;20009;-83
2022/09/17 00:09:06;;;;;;;3.90;3.53;;;9.10;99.90;;;;;;6162946;23;20025;-82
2022/09/17 00:11:37;;;;;;;6.70;5.25;;;9.00;99.90;;;;;;6168609;23;20016;-83
2022/09/17 00:14:09;;;;;;;3.80;3.50;;;9.10;99.90;;;;;;6133971;23;20349;-85
2022/09/17 00:16:40;;;;;;;4.97;4.03;;;9.00;99.90;;;;;;6164731;23;20035;-84
2022/09/17 00:19:15;;;;;;;3.33;3.03;;;9.10;99.90;;;;;;6195010;23;20602;-85
2022/09/17 00:21:43;;;;;;;4.95;4.47;;;9.00;99.90;;;;;;6157707;23;20021;-85
2022/09/17 00:24:12;;;;;;;13.07;3.42;;;9.10;99.90;;;;;;6157234;23;20488;-85
2022/09/17 00:26:41;;;;;;;3.63;3.33;;;9.10;99.90;;;;;;6194772;23;20020;-85
2022/09/17 00:29:09;;;;;;;8.00;3.28;;;9.10;99.90;;;;;;6188685;23;20021;-84
2022/09/17 00:31:37;;;;;;;4.85;3.58;;;9.10;99.90;;;;;;6132612;23;20028;-85
2022/09/17 00:34:08;;;;;;;4.15;3.63;;;9.10;99.90;;;;;;6132791;23;20467;-85
2022/09/17 00:36:36;;;;;;;2.97;2.78;;;9.10;99.90;;;;;;6132666;23;20338;-85
2022/09/17 00:39:06;;;;;;;2.88;2.55;;;9.10;99.90;;;;;;6158313;23;20029;-84
2022/09/17 00:41:36;;;;;;;3.58;3.33;;;9.10;99.90;;;;;;6135048;23;20039;-84
2022/09/17 00:44:39;;;;;;;5.95;2.80;;;9.00;99.90;;;;;;6132451;23;20029;-85
2022/09/17 00:47:21;;;;;;;9.60;3.30;;;9.10;99.90;;;;;;6134252;23;20017;-85
2022/09/17 00:49:54;;;;;;;5.65;4.10;;;9.00;99.90;;;;;;6133186;23;20036;-84
2022/09/17 00:52:28;;;;;;;3.33;3.13;;;9.00;99.90;;;;;;6191726;23;20020;-85
2022/09/17 00:55:10;;;;;;;3.92;3.60;;;9.00;99.90;;;;;;6194874;23;20314;-85
2022/09/17 00:57:41;;;;;;;2.55;2.35;;;9.00;99.90;;;;;;6186412;23;20029;-84
2022/09/17 01:00:09;;;;;;;6.00;3.50;;;9.00;99.90;;;;;;6192632;23;20024;-85
2022/09/17 01:02:37;;;;;;;2.83;2.28;;;8.90;99.90;;;;;;6167822;23;20025;-84
2022/09/17 01:05:06;;;;;;;4.97;3.50;;;8.90;99.90;;;;;;6157364;23;20356;-85
2022/09/17 01:07:52;;;;;;;5.57;2.80;;;8.90;99.90;;;;;;6143743;23;20009;-85
2022/09/17 01:10:56;;;;;;;3.25;2.95;;;8.90;99.90;;;;;;6157651;23;20080;-85
2022/09/17 01:13:51;;;;;;;3.05;2.75;;;8.80;99.90;;;;;;6156996;23;20032;-81
2022/09/17 01:16:45;;;;;;;4.95;2.83;;;8.80;99.90;;;;;;6192214;23;20021;-82
2022/09/17 01:19:34;;;;;;;4.32;2.88;;;8.90;99.90;;;;;;6167656;23;20020;-81
2022/09/17 01:22:58;;;;;;;4.38;4.03;;;8.80;99.90;;;;;;6184405;23;20020;-82
2022/09/17 01:25:41;;;;;;;3.45;3.15;;;8.80;99.90;;;;;;6186212;23;20024;-84
2022/09/17 01:28:41;;;;;;;2.67;2.47;;;8.70;99.90;;;;;;6164815;23;20013;-84
2022/09/17 01:31:34;;;;;;;1.88;1.77;;;8.70;99.90;;;;;;6193017;23;20332;-83
2022/09/17 01:34:43;;;;;;;2.30;2.05;;;8.60;99.90;;;;;;6156929;23;20021;-84
2022/09/17 01:37:37;;;;;;;2.45;1.80;;;8.60;99.90;;;;;;6161454;23;20461;-85
2022/09/17 01:40:23;;;;;;;2.58;2.30;;;8.50;99.90;;;;;;6111724;23;20043;-83
2022/09/17 01:43:09;;;;;;;2.55;2.45;;;8.50;99.90;;;;;;6209023;23;20024;-84
2022/09/17 01:45:46;;;;;;;2.65;2.45;;;8.40;99.90;;;;;;6216206;23;20028;-83
2022/09/17 01:48:18;;;;;;;6.30;3.38;;;8.40;99.90;;;;;;6186821;23;20447;-84
2022/09/17 01:50:58;;;;;;;4.28;2.55;;;8.40;99.90;;;;;;6197233;23;20017;-84
2022/09/17 01:54:07;;;;;;;;;;;8.30;99.90;;;;;;6166588;23;20020;-84
2022/09/17 01:56:43;;;;;;;1.70;1.58;;;8.30;99.90;;;;;;6220516;23;19924;-84
2022/09/17 01:59:23;;;;;;;3.67;2.05;;;8.30;99.90;;;;;;6224024;23;20031;-84
2022/09/17 02:01:57;;;;;;;2.20;2.05;;;8.40;99.90;;;;;;6213412;23;20031;-84
2022/09/17 02:04:32;;;;;;;1.88;1.77;;;8.30;99.90;;;;;;6162028;23;20024;-84
2022/09/17 02:07:10;;;;;;;2.28;1.80;;;8.30;99.90;;;;;;6197502;23;20371;-82
2022/09/17 02:09:44;;;;;;;2.83;2.20;;;8.20;99.90;;;;;;6216305;23;20021;-82
2022/09/17 02:12:17;;;;;;;1.85;1.75;;;8.20;99.90;;;;;;6195330;23;20455;-82
2022/09/17 02:14:49;;;;;;;1.80;1.70;;;8.20;99.90;;;;;;6224615;23;20012;-82
2022/09/17 02:17:41;;;;;;;2.72;2.08;;;8.20;99.90;;;;;;6217681;23;20452;-83
2022/09/17 02:20:10;;;;;;;1.88;1.77;;;8.20;99.90;;;;;;6194345;23;20021;-82
2022/09/17 02:22:43;;;;;;;1.75;1.65;;;8.20;99.90;;;;;;6225725;23;20450;-82
2022/09/17 02:25:27;;;;;;;2.92;2.63;;;8.20;99.90;;;;;;6220436;23;20031;-82
2022/09/17 02:28:24;;;;;;;2.60;2.10;;;8.20;99.90;;;;;;6221897;23;20019;-82
2022/09/17 02:30:51;;;;;;;5.07;4.18;;;8.20;99.90;;;;;;6163880;23;20017;-83
2022/09/17 02:33:20;;;;;;;2.42;2.22;;;8.20;99.90;;;;;;6219655;23;20027;-83
2022/09/17 02:35:48;;;;;;;8.57;2.22;;;8.20;99.90;;;;;;6226166;23;20017;-83
2022/09/17 02:38:29;;;;;;;1.80;1.70;;;8.20;99.90;;;;;;6215063;23;20028;-83
2022/09/17 02:41:09;;;;;;;2.75;2.50;;;8.20;99.90;;;;;;6163417;23;20032;-82
2022/09/17 02:43:57;;;;;;;3.22;1.63;;;8.20;99.90;;;;;;6135050;23;20024;-82
2022/09/17 02:46:47;;;;;;;3.42;1.73;;;8.20;99.90;;;;;;6144219;23;20036;-82
2022/09/17 02:49:35;;;;;;;4.32;2.33;;;8.20;99.90;;;;;;6134451;23;20028;-82
2022/09/17 02:52:33;;;;;;;4.13;2.33;;;8.20;99.90;;;;;;6134241;23;20061;-83
2022/09/17 02:55:15;;;;;;;2.55;2.35;;;8.20;99.90;;;;;;6134718;23;20017;-82
2022/09/17 02:57:55;;;;;;;2.45;2.25;;;8.20;99.90;;;;;;6137020;23;20040;-83
2022/09/17 03:00:23;;;;;;;3.00;2.38;;;8.20;99.90;;;;;;6142856;23;20028;-82
2022/09/17 03:02:56;;;;;;;2.70;2.50;;;8.20;99.90;;;;;;6127446;23;20021;-82
2022/09/17 03:05:25;;;;;;;4.00;2.13;;;8.20;99.90;;;;;;6134393;23;20036;-84
2022/09/17 03:07:55;;;;;;;2.03;1.85;;;8.20;99.90;;;;;;6182859;23;20525;-82
2022/09/17 03:10:23;;;;;;;4.05;3.63;;;8.20;99.90;;;;;;6195415;23;20021;-82
2022/09/17 03:12:52;;;;;;;3.42;1.83;;;8.10;99.90;;;;;;6190476;23;20031;-82
2022/09/17 03:15:19;;;;;;;2.95;2.75;;;8.10;99.90;;;;;;6110826;23;20021;-82
2022/09/17 03:17:46;;;;;;;2.35;2.20;;;8.10;99.90;;;;;;6134158;23;20033;-82
2022/09/17 03:20:19;;;;;;;2.78;2.58;;;8.00;99.90;;;;;;6111097;23;20025;-82
2022/09/17 03:22:58;;;;;;;2.22;2.05;;;8.00;99.90;;;;;;6168182;23;20332;-83
2022/09/17 03:25:25;;;;;;;3.25;1.80;;;8.00;99.90;;;;;;6161633;23;20036;-81
2022/09/17 03:27:52;;;;;;;6.00;2.60;;;7.90;99.90;;;;;;6110383;23;20017;-81
2022/09/17 03:30:19;;;;;;;4.88;2.92;;;7.90;99.90;;;;;;6169545;23;20032;-81
2022/09/17 03:32:47;;;;;;;7.65;2.95;;;7.90;99.90;;;;;;6133785;23;20021;-81
2022/09/17 03:35:14;;;;;;;2.92;2.72;;;8.00;99.90;;;;;;6194307;23;20032;-82
2022/09/17 03:37:42;;;;;;;3.88;2.60;;;7.90;99.90;;;;;;6193184;23;20032;-81
2022/09/17 03:40:09;;;;;;;5.80;3.67;;;8.00;99.90;;;;;;6168421;23;20040;-80
2022/09/17 03:42:37;;;;;;;2.30;2.15;;;7.90;99.90;;;;;;6158783;23;20021;-81
2022/09/17 03:45:05;;;;;;;4.57;3.08;;;7.90;99.90;;;;;;6134301;23;20040;-81
2022/09/17 03:47:32;;;;;;;3.80;2.45;;;7.90;99.90;;;;;;6169283;23;20017;-83
2022/09/17 03:49:59;;;;;;;6.47;2.38;;;7.80;99.90;;;;;;6184184;23;20029;-82
2022/09/17 03:53:36;;;;;;;2.10;1.90;;;7.80;99.90;;;;;;6191514;23;20029;-81
2022/09/17 03:56:05;;;;;;;3.00;2.70;;;7.70;99.90;;;;;;6133075;23;20036;-81
2022/09/17 03:58:33;;;;;;;2.95;2.78;;;7.70;99.90;;;;;;6110147;23;20021;-81
2022/09/17 04:01:02;;;;;;;4.07;2.33;;;7.70;99.90;;;;;;6188157;23;20029;-81
2022/09/17 04:03:31;;;;;;;5.38;2.45;;;7.60;99.90;;;;;;6134454;23;20028;-82
2022/09/17 04:05:58;;;;;;;2.92;2.00;;;7.60;99.90;;;;;;6133863;23;20021;-81
2022/09/17 04:08:26;;;;;;;9.57;2.78;;;7.60;99.90;;;;;;6133922;23;20040;-82
2022/09/17 04:10:53;;;;;;;3.75;2.30;;;7.50;99.90;;;;;;6168945;23;20020;-81
2022/09/17 04:13:21;;;;;;;3.95;2.85;;;7.60;99.90;;;;;;6188076;23;20480;-81
2022/09/17 04:15:48;;;;;;;2.28;1.92;;;7.50;99.90;;;;;;6195306;23;20024;-81
2022/09/17 04:18:15;;;;;;;4.22;3.58;;;7.50;99.90;;;;;;6157872;23;20464;-82
2022/09/17 04:20:43;;;;;;;2.88;2.55;;;7.50;99.90;;;;;;6132874;23;20032;-82
2022/09/17 04:23:14;;;;;;;2.75;2.58;;;7.50;99.90;;;;;;6194999;23;20009;-81
2022/09/17 04:26:14;;;;;;;2.47;2.28;;;7.50;99.90;;;;;;6162114;23;20016;-89
2022/09/17 04:28:41;;;;;;;2.25;2.10;;;7.50;99.90;;;;;;6189136;23;20024;-82
2022/09/17 04:31:08;;;;;;;2.70;2.08;;;7.50;99.90;;;;;;6194977;23;20068;-81
2022/09/17 04:33:36;;;;;;;6.13;2.08;;;7.50;99.90;;;;;;6158034;23;20032;-82
2022/09/17 04:36:03;;;;;;;4.47;3.17;;;7.50;99.90;;;;;;6133896;23;20028;-82
2022/09/17 04:38:32;;;;;;;2.75;2.20;;;7.50;99.90;;;;;;6168091;23;20016;-81
2022/09/17 04:40:59;;;;;;;3.05;1.92;;;7.50;99.90;;;;;;6109089;23;20441;-82
2022/09/17 04:43:27;;;;;;;4.13;3.03;;;7.50;99.90;;;;;;6163203;23;20444;-82
2022/09/17 04:45:54;;;;;;;4.20;2.72;;;7.50;99.90;;;;;;6163591;23;20024;-82
2022/09/17 04:48:22;;;;;;;2.55;1.48;;;7.50;99.90;;;;;;6187821;23;20452;-82
2022/09/17 04:50:49;;;;;;;2.72;2.53;;;7.50;99.90;;;;;;6187246;23;20028;-82
2022/09/17 04:53:23;;;;;;;2.75;2.03;;;7.50;99.90;;;;;;6216162;23;20020;-81
2022/09/17 04:55:50;;;;;;;1.73;1.63;;;7.50;99.90;;;;;;6224363;23;20024;-82
2022/09/17 04:58:18;;;;;;;3.63;3.42;;;7.50;99.90;;;;;;6223526;23;20024;-82
2022/09/17 05:00:45;;;;;;;2.72;1.58;;;7.50;99.90;;;;;;6138077;23;20012;-82
2022/09/17 05:03:13;;;;;;;5.90;1.95;;;7.40;99.90;;;;;;6223488;23;20042;-82
2022/09/17 05:05:40;;;;;;;2.97;1.90;;;7.40;99.90;;;;;;6215374;23;20075;-82
2022/09/17 05:08:07;;;;;;;4.85;2.35;;;7.40;99.90;;;;;;6195877;23;20013;-81
2022/09/17 05:10:35;;;;;;;2.95;2.17;;;7.40;99.90;;;;;;6187801;23;20016;-81
2022/09/17 05:13:02;;;;;;;3.08;2.05;;;7.40;99.90;;;;;;6162361;23;20734;-82
2022/09/17 05:15:30;;;;;;;4.78;2.55;;;7.30;99.90;;;;;;6138042;23;20017;-82
2022/09/17 05:17:57;;;;;;;3.50;1.75;;;7.30;99.90;;;;;;6162658;23;20036;-81
2022/09/17 05:20:25;;;;;;;5.50;1.85;;;7.30;99.90;;;;;;6221274;23;20082;-82
2022/09/17 05:22:59;;;;;;;2.25;2.13;;;7.30;99.90;;;;;;6224058;23;20701;-81
2022/09/17 05:25:26;;;;;;;2.30;1.60;;;7.30;99.90;;;;;;6217081;23;20029;-82
2022/09/17 05:27:55;;;;;;;1.90;1.80;;;7.30;99.90;;;;;;6162402;23;20505;-81
2022/09/17 05:30:22;;;;;;;7.43;2.03;;;7.30;99.90;;;;;;6138693;23;20016;-80
2022/09/17 05:32:58;;;;;;;3.30;2.30;;;7.30;99.90;;;;;;6218035;23;20448;-82
2022/09/17 05:35:26;;;;;;;3.00;2.80;;;7.30;99.90;;;;;;6163196;23;20017;-81
2022/09/17 05:38:01;;;;;;;1.83;1.70;;;7.30;99.90;;;;;;6212997;23;20024;-82
2022/09/17 05:40:31;;;;;;;11.68;1.95;;;7.30;99.90;;;;;;6221420;23;20468;-82
2022/09/17 05:43:00;;;;;;;1.83;1.48;;;7.40;99.90;;;;;;6215968;23;20013;-84
2022/09/17 05:45:29;;;;;;;2.13;1.80;;;7.40;99.90;;;;;;6187502;23;20025;-84
2022/09/17 05:47:58;;;;;;;3.33;2.63;;;7.40;99.90;;;;;;6197308;23;20424;-83
2022/09/17 05:50:27;;;;;;;1.98;1.63;;;7.40;99.90;;;;;;6197441;23;20023;-84
2022/09/17 05:52:54;;;;;;;1.92;1.75;;;7.40;99.90;;;;;;6162063;23;20025;-83
2022/09/17 05:55:26;;;;;;;3.30;1.50;;;7.40;99.90;;;;;;6172583;23;20032;-86
2022/09/17 05:57:54;;;;;;;2.22;1.70;;;7.50;99.90;;;;;;6188186;23;20028;-84
2022/09/17 06:00:21;;;;;;;1.55;1.45;;;7.50;99.90;;;;;;6194936;23;20017;-83
2022/09/17 06:02:56;;;;;;;2.70;1.80;;;7.50;99.90;;;;;;6187447;23;20017;-84
2022/09/17 06:05:24;;;;;;;9.73;2.92;;;7.50;99.90;;;;;;6189896;23;20028;-83
2022/09/17 06:07:51;;;;;;;1.98;1.88;;;7.50;99.90;;;;;;6223110;23;20596;-84
2022/09/17 06:10:20;;;;;;;5.70;1.63;;;7.60;99.90;;;;;;6196342;23;20021;-83
2022/09/17 06:12:47;;;;;;;3.17;2.83;;;7.60;99.90;;;;;;6219115;23;20025;-83
2022/09/17 06:15:15;;;;;;;2.05;1.83;;;7.60;99.90;;;;;;6223875;23;20009;-83
2022/09/17 06:17:42;;;;;;;2.30;2.05;;;7.70;99.90;;;;;;6161915;23;20024;-84
2022/09/17 06:20:09;;;;;;;2.03;1.80;;;7.70;99.90;;;;;;6195328;23;20027;-83
2022/09/17 06:22:40;;;;;;;2.58;2.38;;;7.70;99.90;;;;;;6162456;23;20017;-83
2022/09/17 06:25:08;;;;;;;1.98;1.70;;;7.70;99.90;;;;;;6137508;23;20028;-83
2022/09/17 06:27:35;;;;;;;2.90;2.67;;;7.70;99.90;;;;;;6162770;23;20024;-85
2022/09/17 06:30:06;;;;;;;2.92;2.08;;;7.70;99.90;;;;;;6214601;23;20024;-84
2022/09/17 06:32:33;;;;;;;8.82;2.22;;;7.70;99.90;;;;;;6220166;23;20031;-84
2022/09/17 06:35:02;;;;;;;3.58;2.47;;;7.80;99.90;;;;;;6197798;23;20016;-84
2022/09/17 06:37:31;;;;;;;3.55;2.20;;;7.80;99.90;;;;;;6190136;23;20459;-84
2022/09/17 06:39:58;;;;;;;1.70;1.60;;;7.80;99.90;;;;;;6222679;23;20024;-84
2022/09/17 06:42:27;;;;;;;2.90;2.13;;;7.90;99.90;;;;;;6174079;23;20480;-83
2022/09/17 06:44:55;;;;;;;3.22;1.58;;;8.00;99.90;;;;;;6138295;23;20029;-83
2022/09/17 06:47:29;;;;;;;1.80;1.70;;;7.90;99.90;;;;;;6193443;23;20460;-82
2022/09/17 06:49:58;;;;;;;2.20;1.85;;;7.90;99.90;;;;;;6132053;23;20021;-85
2022/09/17 06:52:32;;;;;;;3.97;1.92;;;8.00;99.90;;;;;;6190932;23;20345;-84
2022/09/17 06:54:59;;;;;;;5.65;2.38;;;8.00;99.90;;;;;;6193714;23;20017;-84
2022/09/17 06:57:26;;;;;;;1.80;1.63;;;8.10;99.90;;;;;;6186397;23;20021;-84
2022/09/17 06:59:54;;;;;;;4.38;2.67;;;8.00;99.90;;;;;;6192802;23;20024;-84
2022/09/17 07:02:21;;;;;;;7.32;2.33;;;8.00;99.90;;;;;;6167778;23;20013;-85
2022/09/17 07:04:51;;;;;;;2.85;1.65;;;8.00;99.90;;;;;;6187180;23;20032;-80
2022/09/17 07:07:18;;;;;;;1.75;1.65;;;8.10;99.90;;;;;;6168323;23;20013;-81
2022/09/17 07:09:46;;;;;;;3.50;2.00;;;8.10;99.90;;;;;;6186418;23;20025;-83
2022/09/17 07:12:16;;;;;;;2.25;2.05;;;8.20;99.90;;;;;;6166965;23;20017;-83
2022/09/17 07:14:43;;;;;;;2.28;1.77;;;8.10;99.90;;;;;;6194874;23;20013;-80
2022/09/17 07:17:10;;;;;;;1.73;1.63;;;8.00;99.90;;;;;;6189362;23;20038;-84
2022/09/17 07:19:38;;;;;;;1.67;1.58;;;8.10;99.90;;;;;;6168999;23;20013;-83
2022/09/17 07:22:07;;;;;;;8.35;2.30;;;8.20;99.90;;;;;;6185794;23;20047;-84
2022/09/17 07:24:35;;;;;;;3.90;1.95;;;8.20;99.90;;;;;;6190423;23;20029;-84
2022/09/17 07:27:02;;;;;;;2.83;2.13;;;8.30;99.90;;;;;;6158739;23;20021;-82
2022/09/17 07:29:31;;;;;;;1.77;1.67;;;8.40;99.90;;;;;;6188486;23;20025;-82
2022/09/17 07:31:58;;;;;;;3.15;2.95;;;8.30;99.90;;;;;;6192723;23;20013;-84
2022/09/17 07:34:27;;;;;;;3.17;2.40;;;8.30;99.90;;;;;;6193738;23;20017;-83
2022/09/17 07:36:55;;;;;;;1.58;1.48;;;8.30;99.90;;;;;;6190691;23;20025;-82
2022/09/17 07:39:22;;;;;;;3.60;2.15;;;8.30;99.90;;;;;;6158710;23;20017;-82
2022/09/17 07:41:50;;;;;;;3.17;2.95;;;8.20;99.90;;;;;;6197040;23;20352;-82
2022/09/17 07:44:17;;;;;;;6.97;3.10;;;8.20;99.90;;;;;;6221202;23;20028;-83
2022/09/17 07:46:45;;;;;;;3.05;1.55;;;8.20;99.90;;;;;;6224636;23;20016;-82
2022/09/17 07:49:12;;;;;;;7.50;2.63;;;8.20;99.90;;;;;;6219509;23;20028;-83
2022/09/17 07:51:39;;;;;;;5.72;2.42;;;8.20;99.90;;;;;;6224248;23;20314;-83
2022/09/17 07:54:07;;;;;;;3.00;1.48;;;8.30;99.90;;;;;;6215699;23;20028;-84
2022/09/17 07:56:34;;;;;;;16.25;2.97;;;8.30;99.90;;;;;;6221843;23;20021;-84
2022/09/17 07:59:02;;;;;;;4.20;1.88;;;8.40;99.90;;;;;;6199463;23;20012;-82
2022/09/17 08:01:33;;;;;;;1.77;1.60;;;8.40;99.90;;;;;;6217337;23;20344;-86
2022/09/17 08:04:04;;;;;;;3.95;2.38;;;8.50;99.90;;;;;;6187998;23;20020;-83
2022/09/17 08:06:36;;;;;;;2.28;1.98;;;8.60;99.90;;;;;;6199765;23;20066;-84
2022/09/17 08:09:04;;;;;;;3.17;2.83;;;8.70;99.90;;;;;;6219538;23;20028;-82
2022/09/17 08:11:31;;;;;;;1.48;1.38;;;8.80;99.90;;;;;;6199115;23;20019;-83
2022/09/17 08:14:19;;;;;;;2.05;1.95;;;8.90;99.90;;;;;;6187877;23;20340;-83
2022/09/17 08:16:46;;;;;;;6.28;2.95;;;8.90;99.90;;;;;;6194194;23;20029;-84
2022/09/17 08:19:14;;;;;;;3.38;1.30;;;9.00;99.90;;;;;;6225303;23;20339;-84
2022/09/17 08:21:41;;;;;;;2.80;2.20;;;9.10;99.90;;;;;;6217072;23;20025;-84
2022/09/17 08:24:09;;;;;;;3.33;2.22;;;9.20;99.90;;;;;;6202516;23;20013;-82
2022/09/17 08:26:37;;;;;;;5.57;1.13;;;9.30;99.90;;;;;;6153978;23;20021;-82
2022/09/17 08:29:06;;;;;;;3.33;1.75;;;9.20;99.90;;;;;;6156955;23;20476;-83
2022/09/17 08:31:36;;;;;;;3.25;1.55;;;9.30;99.90;;;;;;6152736;23;20024;-84
2022/09/17 08:34:07;;;;;;;1.80;1.65;;;9.40;99.90;;;;;;6152992;23;20026;-83
2022/09/17 08:36:35;;;;;;;1.40;1.35;;;9.60;99.90;;;;;;6153711;23;20025;-82
2022/09/17 08:39:03;;;;;;;4.75;1.70;;;9.70;99.90;;;;;;6162751;23;20037;-82
2022/09/17 08:41:44;;;;;;;3.42;1.20;;;9.60;99.90;;;;;;6155067;23;20025;-83
2022/09/17 08:44:29;;;;;;;10.43;3.13;;;9.80;99.90;;;;;;6160622;23;20013;-83
2022/09/17 08:47:02;;;;;;;1.50;1.10;;;9.80;99.90;;;;;;6156236;23;20036;-83
2022/09/17 08:49:38;;;;;;;5.55;1.25;;;9.80;99.90;;;;;;6154892;23;20051;-82
2022/09/17 08:52:43;;;;;;;2.38;1.48;;;9.80;99.90;;;;;;6156430;23;20025;-82
2022/09/17 08:55:24;;;;;;;5.45;2.15;;;9.70;99.90;;;;;;6137879;23;20025;-82
2022/09/17 08:58:18;;;;;;;5.22;2.78;;;9.70;99.90;;;;;;6176211;23;20348;-85
2022/09/17 09:00:54;;;;;;;1.48;1.30;;;9.80;99.90;;;;;;6158220;23;20021;-83
2022/09/17 09:03:37;;;;;;;7.15;1.80;;;9.90;99.90;;;;;;6134519;23;20021;-84
2022/09/17 09:06:04;;;;;;;1.95;1.58;;;9.90;99.90;;;;;;6158462;23;20029;-85
2022/09/17 09:08:45;;;;;;;3.70;2.08;;;9.90;99.90;;;;;;6191031;23;20349;-84
2022/09/17 09:11:16;;;;;;;5.38;3.00;;;9.80;99.90;;;;;;6182942;23;20020;-83
2022/09/17 09:13:47;;;;;;;3.95;2.03;;;9.80;99.90;;;;;;6186479;23;20431;-82
2022/09/17 09:16:20;;;;;;;;;;;9.60;99.90;;;;;;6166750;23;20013;-83
2022/09/17 09:18:53;;;;;;;2.08;1.15;;;9.60;99.90;;;;;;6194472;23;19916;-84
2022/09/17 09:21:28;;;;;;;5.70;1.10;;;9.50;99.90;;;;;;6211274;23;20021;-83
2022/09/17 09:24:07;;;;;;;2.25;1.77;;;9.50;99.90;;;;;;6132252;23;20017;-84
2022/09/17 09:26:44;;;;;;;3.97;1.20;;;9.40;99.90;;;;;;6158624;23;20013;-85
2022/09/17 09:29:40;;;;;;;2.15;1.52;;;9.40;99.90;;;;;;6188510;23;20021;-84
2022/09/17 09:32:40;;;;;;;4.20;2.00;;;9.40;99.90;;;;;;6166101;23;20024;-85
2022/09/17 09:35:21;;;;;;;1.40;1.30;;;9.40;99.90;;;;;;6198587;23;20016;-87
2022/09/17 09:38:23;;;;;;;1.50;1.30;;;9.50;99.90;;;;;;6189544;23;20482;-82
2022/09/17 09:41:14;;;;;;;1.15;1.10;;;9.40;99.90;;;;;;6219949;22;20325;-83
2022/09/17 09:44:01;;;;;;;3.15;2.85;;;9.40;99.90;;;;;;6168854;23;20024;-83
2022/09/17 09:47:11;;;;;;;3.55;1.55;;;9.20;99.90;;;;;;6139717;23;20041;-86
2022/09/17 09:50:03;;;;;;;1.35;1.35;;;9.10;99.90;;;;;;6156752;23;20432;-82
2022/09/17 09:53:17;;;;;;;1.60;1.50;;;9.00;99.90;;;;;;6164276;23;20476;-83
2022/09/17 09:56:22;;;;;;;3.95;1.67;;;8.90;99.90;;;;;;6167173;23;20325;-84
2022/09/17 09:58:52;;;;;;;3.95;1.50;;;8.80;99.90;;;;;;6200795;23;20036;-82
2022/09/17 10:01:21;;;;;;;2.17;1.48;;;8.60;99.90;;;;;;6187482;23;20032;-86
2022/09/17 10:03:52;;;;;;;3.13;1.15;;;8.60;99.90;;;;;;6198375;23;20019;-82
2022/09/17 10:06:21;;;;;;;3.40;1.73;;;8.50;99.90;;;;;;6156579;23;20371;-84
2022/09/17 10:08:49;;;;;;;2.85;1.77;;;8.50;99.90;;;;;;6163484;23;20032;-85
2022/09/17 10:11:21;;;;;;;3.38;2.42;;;8.50;99.90;;;;;;6157553;23;20017;-85
2022/09/17 10:13:49;;;;;;;2.85;1.40;;;8.40;99.90;;;;;;6209127;23;20021;-84
2022/09/17 10:16:25;;;;;;;3.13;2.65;;;8.40;99.90;;;;;;6177385;23;20077;-83
2022/09/17 10:19:04;;;;;;;15.23;5.03;;;8.40;99.90;;;;;;6167946;23;20403;-83
2022/09/17 10:21:35;;;;;;;1.77;1.50;;;8.30;99.90;;;;;;6186289;23;20032;-81
2022/09/17 10:24:20;;;;;;;2.13;1.83;;;8.20;99.90;;;;;;6191826;23;20017;-88
2022/09/17 10:26:49;;;;;;;9.10;2.08;;;8.10;99.90;;;;;;6158542;23;20031;-87
2022/09/17 10:29:19;;;;;;;10.98;2.90;;;8.10;99.90;;;;;;6161715;23;20032;-88
2022/09/17 10:31:52;;;;;;;4.25;1.77;;;8.00;99.90;;;;;;6133550;23;20017;-88
2022/09/17 10:34:30;;;;;;;4.05;1.73;;;8.00;99.90;;;;;;6180429;23;20024;-89
2022/09/17 10:36:58;;;;;;;1.63;1.40;;;8.00;99.90;;;;;;6181624;23;20016;-89
2022/09/17 10:39:26;;;;;;;1.52;1.42;;;8.00;99.90;;;;;;6217771;23;20013;-86
2022/09/17 10:42:04;;;;;;;3.50;1.80;;;8.00;99.90;;;;;;6144613;23;20036;-90
2022/09/17 10:44:36;;;;;;;4.43;1.90;;;7.90;99.90;;;;;;6164489;23;20028;-88
2022/09/17 10:47:15;;;;;;;1.33;1.30;;;8.00;99.90;;;;;;6190246;23;20017;-86
2022/09/17 10:49:46;;;;;;;1.88;1.20;;;7.90;99.90;;;;;;6189005;23;20028;-88
2022/09/17 10:52:21;;;;;;;;;;;8.00;99.90;;;;;;6197906;23;20017;-88
2022/09/17 10:55:15;;;;;;;0.77;0.77;;;7.90;99.90;;;;;;6189507;23;19919;-88
2022/09/17 11:01:27;;;;;;;1.35;1.10;;;7.90;99.90;;;;;;6050835;23;20472;-88
2022/09/17 11:04:38;;;;;;;3.40;1.13;;;8.00;99.90;;;;;;6163036;23;20028;-88
2022/09/17 11:07:44;;;;;;;4.00;1.00;;;7.90;99.90;;;;;;6225160;23;20009;-90
2022/09/17 11:10:33;;;;;;;4.32;1.23;;;7.90;99.90;;;;;;6214744;23;20027;-88
2022/09/17 11:13:27;;;;;;;1.20;1.15;;;8.00;99.90;;;;;;6138797;23;20024;-87
2022/09/17 11:16:16;;;;;;;1.02;1.02;;;8.00;99.90;;;;;;6198899;23;20012;-87
2022/09/17 11:18:53;;;;;;;2.38;1.60;;;8.00;99.90;;;;;;6163063;23;20017;-89
2022/09/17 11:21:44;;;;;;;2.20;1.70;;;8.10;99.90;;;;;;6214777;23;20035;-88
2022/09/17 11:24:20;;;;;;;2.08;1.98;;;8.10;99.90;;;;;;6196744;23;20016;-85
2022/09/17 11:26:50;;;;;;;2.67;2.42;;;8.10;99.90;;;;;;6224671;23;20013;-87
2022/09/17 11:29:30;;;;;;;2.00;1.80;;;8.10;99.90;;;;;;6159969;23;20024;-87
2022/09/17 11:32:23;;;;;;;2.93;1.90;;;8.20;99.90;;;;;;6158567;23;20024;-86
2022/09/17 11:35:06;;;;;;;3.45;3.15;;;8.20;99.90;;;;;;6194907;23;20251;-86
2022/09/17 11:37:42;;;;;;;3.60;2.22;;;8.30;99.90;;;;;;6213531;23;20823;-85
2022/09/17 11:40:11;;;;;;;1.98;1.80;;;8.30;99.90;;;;;;6191968;23;20017;-86
2022/09/17 11:43:02;;;;;;;2.45;2.25;;;8.30;99.90;;;;;;6116025;23;20021;-87
2022/09/17 11:45:38;;;;;;;2.20;2.00;;;8.30;99.90;;;;;;6129350;23;20040;-87
2022/09/17 11:48:22;;;;;;;4.03;2.20;;;8.30;99.90;;;;;;6189794;23;20024;-85
2022/09/17 11:50:56;;;;;;;2.75;2.55;;;8.30;99.90;;;;;;6191282;23;20021;-87
2022/09/17 11:53:36;;;;;;;3.65;1.70;;;8.20;99.90;;;;;;6156708;23;20200;-89
2022/09/17 11:56:14;;;;;;;1.73;1.63;;;8.10;99.90;;;;;;6129494;23;20028;-86
2022/09/17 11:59:04;;;;;;;4.10;2.55;;;8.00;99.90;;;;;;6188908;23;20021;-86
2022/09/17 12:01:44;;;;;;;1.88;1.60;;;8.00;99.90;;;;;;6132494;23;20033;-86
2022/09/17 12:04:37;;;;;;;2.45;2.10;;;8.00;99.90;;;;;;6188142;23;20467;-88
2022/09/17 12:07:44;;;;;;;2.65;1.55;;;8.10;99.90;;;;;;6129710;23;20025;-87
2022/09/17 12:10:19;;;;;;;7.10;2.17;;;8.10;99.90;;;;;;6155098;23;20032;-87
2022/09/17 12:12:55;;;;;;;10.50;2.35;;;8.10;99.90;;;;;;6160629;23;20037;-85
2022/09/17 12:15:28;;;;;;;6.18;1.52;;;8.20;99.90;;;;;;6130175;23;20028;-87
2022/09/17 12:18:03;;;;;;;1.67;1.50;;;8.20;99.90;;;;;;6152603;23;20029;-85
2022/09/17 12:20:56;;;;;;;1.58;1.48;;;8.50;99.90;;;;;;6116077;23;20029;-88
2022/09/17 12:23:47;;;;;;;1.80;1.60;;;8.60;99.90;;;;;;6128238;23;20025;-87
2022/09/17 12:26:32;;;;;;;;;;;8.80;99.90;;;;;;6187969;23;20351;-85
2022/09/17 12:29:20;;;;;;;2.45;2.25;;;9.00;99.90;;;;;;6169642;23;20320;-86
2022/09/17 12:31:56;;;;;;;1.58;1.48;;;8.90;99.90;;;;;;6189431;23;20016;-84
2022/09/17 12:34:42;;;;;;;1.73;1.63;;;8.80;99.90;;;;;;6221390;23;20025;-88
2022/09/17 12:37:47;;;;;;;2.75;1.70;;;8.90;99.90;;;;;;6147701;23;20017;-86
2022/09/17 12:40:47;;;;;;;1.00;1.00;;;9.00;99.90;;;;;;6174845;23;20029;-85
2022/09/17 12:43:33;;;;;;;2.35;1.73;;;9.00;99.90;;;;;;6189697;23;20317;-86
2022/09/17 12:46:45;;;;;;;1.77;1.67;;;9.10;99.90;;;;;;6208097;23;20329;-87
2022/09/17 12:49:39;;;;;;;1.10;1.08;;;9.40;99.90;;;;;;6218903;23;20033;-88
2022/09/17 12:52:29;;;;;;;4.35;1.52;;;9.70;99.90;;;;;;6159888;23;20378;-87
2022/09/17 12:55:24;;;;;;;8.73;3.28;;;9.70;99.90;;;;;;6183054;23;20024;-86
2022/09/17 12:58:20;;;;;;;2.72;2.00;;;9.70;99.90;;;;;;6216014;23;20017;-85
2022/09/17 13:00:54;;;;;;;3.25;1.42;;;9.70;99.90;;;;;;6235842;22;20024;-86
2022/09/17 13:03:31;;;;;;;3.65;1.92;;;9.90;99.90;;;;;;6199564;22;20019;-86
2022/09/17 13:06:39;;;;;;;1.77;1.20;;;10.00;99.90;;;;;;6223442;22;20015;-87
2022/09/17 13:09:45;;;;;;;1.80;1.02;;;10.00;99.90;;;;;;6221833;22;20016;-86
2022/09/17 13:12:38;;;;;;;3.75;1.48;;;9.90;99.90;;;;;;6215746;22;20046;-82
2022/09/17 13:15:25;;;;;;;1.25;1.05;;;10.10;99.90;;;;;;6223907;22;20015;-81
2022/09/17 13:18:24;;;;;;;1.40;1.30;;;10.10;99.90;;;;;;6200259;22;20028;-85
2022/09/17 13:21:01;;;;;;;4.43;1.70;;;10.30;99.90;;;;;;6223066;22;20035;-81
2022/09/17 13:24:00;;;;;;;3.53;1.40;;;10.40;99.90;;;;;;6286245;22;20012;-81
2022/09/17 13:26:38;;;;;;;0.88;0.88;;;10.50;99.90;;;;;;6257439;22;20031;-83
2022/09/17 13:29:08;;;;;;;3.60;1.35;;;10.60;99.90;;;;;;6280148;22;20012;-81
2022/09/17 13:31:36;;;;;;;1.25;1.15;;;10.30;99.90;;;;;;6279229;22;20306;-82
2022/09/17 13:34:28;;;;;;;2.00;1.50;;;10.10;99.90;;;;;;6275432;22;20023;-82
2022/09/17 13:36:58;;;;;;;1.50;1.50;;;10.00;99.90;;;;;;6272957;22;20026;-82
2022/09/17 13:39:47;;;;;;;4.22;1.25;;;10.00;99.90;;;;;;6284955;22;20007;-81
2022/09/17 13:42:28;;;;;;;2.08;1.08;;;10.00;99.90;;;;;;6274174;22;20320;-81
2022/09/17 13:45:04;;;;;;;1.83;1.67;;;10.30;99.90;;;;;;6279999;22;20346;-82
2022/09/17 13:47:53;;;;;;;1.92;1.83;;;10.50;99.90;;;;;;6285904;22;20339;-82
2022/09/17 13:50:35;;;;;;;4.72;1.30;;;10.80;99.90;;;;;;6274492;22;20462;-83